createdAt,value
2019-06-26T00:00:26.354Z,28.58
2019-06-26T00:01:06.832Z,28.6
2019-06-26T00:01:47.345Z,28.6
2019-06-26T00:02:27.764Z,28.52
2019-06-26T00:03:08.237Z,28.58
2019-06-26T00:03:48.713Z,28.67
2019-06-26T00:04:29.203Z,28.61
2019-06-26T00:05:09.692Z,28.64
2019-06-26T00:05:50.179Z,28.61
2019-06-26T00:06:30.663Z,28.54
2019-06-26T00:07:11.150Z,28.55
2019-06-26T00:07:51.630Z,28.62
2019-06-26T00:08:32.132Z,28.52
2019-06-26T00:09:12.598Z,28.54
2019-06-26T00:09:53.073Z,28.45
2019-06-26T00:10:33.553Z,28.51
2019-06-26T00:11:14.043Z,28.54
2019-06-26T00:11:54.570Z,28.48
2019-06-26T00:12:35.044Z,28.52
2019-06-26T00:13:25.468Z,28.5
2019-06-26T00:13:56.022Z,28.48
2019-06-26T00:14:38.798Z,28.46
2019-06-26T00:15:16.973Z,28.48
2019-06-26T00:15:57.459Z,28.5
2019-06-26T00:16:37.976Z,28.45
2019-06-26T00:17:18.549Z,28.43
2019-06-26T00:17:59.026Z,28.43
2019-06-26T00:18:39.489Z,28.52
2019-06-26T00:19:19.990Z,28.46
2019-06-26T00:20:00.501Z,28.48
2019-06-26T00:20:40.966Z,28.52
2019-06-26T00:21:22.076Z,28.48
2019-06-26T00:22:01.944Z,28.5
2019-06-26T00:22:42.427Z,28.52
2019-06-26T00:23:22.921Z,28.48
2019-06-26T00:24:03.426Z,28.46
2019-06-26T00:24:43.925Z,28.42
2019-06-26T00:25:24.417Z,28.43
2019-06-26T00:26:04.886Z,28.46
2019-06-26T00:27:25.850Z,28.48
2019-06-26T00:28:06.333Z,28.43
2019-06-26T00:28:46.814Z,28.4
2019-06-26T00:29:27.306Z,28.46
2019-06-26T00:30:07.796Z,28.45
2019-06-26T00:30:48.281Z,28.4
2019-06-26T00:31:28.776Z,28.36
2019-06-26T00:32:09.280Z,28.38
2019-06-26T00:32:49.713Z,28.39
2019-06-26T00:33:30.214Z,28.43
2019-06-26T00:34:10.679Z,28.42
2019-06-26T00:34:51.164Z,28.42
2019-06-26T00:35:31.643Z,28.4
2019-06-26T00:36:12.126Z,28.4
2019-06-26T00:36:52.614Z,28.45
2019-06-26T00:37:33.107Z,28.39
2019-06-26T00:38:13.601Z,28.5
2019-06-26T00:38:54.081Z,28.42
2019-06-26T00:39:34.565Z,28.45
2019-06-26T00:40:15.253Z,28.42
2019-06-26T00:40:55.514Z,28.42
2019-06-26T00:41:36.016Z,28.36
2019-06-26T00:42:16.497Z,28.4
2019-06-26T00:42:56.975Z,28.42
2019-06-26T00:43:42.181Z,28.38
2019-06-26T00:44:17.943Z,28.32
2019-06-26T00:44:58.426Z,28.36
2019-06-26T00:45:38.923Z,28.32
2019-06-26T00:46:19.415Z,28.35
2019-06-26T00:46:59.878Z,28.39
2019-06-26T00:47:40.369Z,28.35
2019-06-26T00:48:20.861Z,28.33
2019-06-26T00:49:01.333Z,28.35
2019-06-26T00:49:41.831Z,28.3
2019-06-26T00:50:22.333Z,28.33
2019-06-26T00:51:02.821Z,28.33
2019-06-26T00:52:23.812Z,28.28
2019-06-26T00:53:04.294Z,28.32
2019-06-26T00:53:44.795Z,28.25
2019-06-26T00:54:25.307Z,28.28
2019-06-26T00:55:05.772Z,28.27
2019-06-26T00:55:46.241Z,28.25
2019-06-26T00:56:26.735Z,28.23
2019-06-26T00:57:07.215Z,28.14
2019-06-26T00:57:47.705Z,28.3
2019-06-26T00:58:28.195Z,28.24
2019-06-26T00:59:08.691Z,28.15
2019-06-26T00:59:49.177Z,28.14
2019-06-26T01:00:29.669Z,28.24
2019-06-26T01:01:10.157Z,28.21
2019-06-26T01:01:50.655Z,28.17
2019-06-26T01:02:31.143Z,28.23
2019-06-26T01:03:11.604Z,28.18
2019-06-26T01:03:52.090Z,28.09
2019-06-26T01:04:32.612Z,28.11
2019-06-26T01:05:13.064Z,28.01
2019-06-26T01:05:53.534Z,28.03
2019-06-26T01:06:34.030Z,27.99
2019-06-26T01:07:14.516Z,27.98
2019-06-26T01:07:55.003Z,27.99
2019-06-26T01:08:35.506Z,27.99
2019-06-26T01:09:15.973Z,27.88
2019-06-26T01:09:56.446Z,27.93
2019-06-26T01:10:36.934Z,27.9
2019-06-26T01:11:17.430Z,27.86
2019-06-26T01:11:57.901Z,27.9
2019-06-26T01:12:38.397Z,27.96
2019-06-26T01:13:18.868Z,27.87
2019-06-26T01:13:59.361Z,27.87
2019-06-26T01:14:39.853Z,27.91
2019-06-26T01:15:20.345Z,27.93
2019-06-26T01:16:00.838Z,28.02
2019-06-26T01:16:41.330Z,27.98
2019-06-26T01:17:21.825Z,27.96
2019-06-26T01:18:02.313Z,27.96
2019-06-26T01:18:42.808Z,27.96
2019-06-26T01:19:23.291Z,27.91
2019-06-26T01:20:03.772Z,27.91
2019-06-26T01:20:44.243Z,27.96
2019-06-26T01:21:24.731Z,27.88
2019-06-26T01:22:05.224Z,27.87
2019-06-26T01:22:45.702Z,27.95
2019-06-26T01:23:26.221Z,27.93
2019-06-26T01:24:06.716Z,27.93
2019-06-26T01:24:47.139Z,27.91
2019-06-26T01:25:27.592Z,27.87
2019-06-26T01:26:08.071Z,27.81
2019-06-26T01:26:48.566Z,27.83
2019-06-26T01:27:28.986Z,27.87
2019-06-26T01:28:09.460Z,27.84
2019-06-26T01:28:49.946Z,27.8
2019-06-26T01:29:32.597Z,27.8
2019-06-26T01:30:10.989Z,27.78
2019-06-26T01:30:51.474Z,27.69
2019-06-26T01:31:31.942Z,27.68
2019-06-26T01:32:12.438Z,27.71
2019-06-26T01:32:52.916Z,27.72
2019-06-26T01:33:33.405Z,27.59
2019-06-26T01:34:13.900Z,27.69
2019-06-26T01:34:54.397Z,27.72
2019-06-26T01:35:34.887Z,27.53
2019-06-26T01:36:15.370Z,27.53
2019-06-26T01:36:55.860Z,27.52
2019-06-26T01:37:36.326Z,27.58
2019-06-26T01:38:16.804Z,27.53
2019-06-26T01:38:57.289Z,27.53
2019-06-26T01:39:37.765Z,27.52
2019-06-26T01:40:18.314Z,27.55
2019-06-26T01:40:58.759Z,27.5
2019-06-26T01:41:39.227Z,27.52
2019-06-26T01:42:19.731Z,27.46
2019-06-26T01:43:00.218Z,27.48
2019-06-26T01:43:40.717Z,27.43
2019-06-26T01:44:21.184Z,27.43
2019-06-26T01:45:01.691Z,27.45
2019-06-26T01:45:42.170Z,27.45
2019-06-26T01:46:22.656Z,27.45
2019-06-26T01:47:03.137Z,27.4
2019-06-26T01:47:43.621Z,27.4
2019-06-26T01:48:24.163Z,27.43
2019-06-26T01:49:04.621Z,27.4
2019-06-26T01:49:45.098Z,27.38
2019-06-26T01:50:25.579Z,27.39
2019-06-26T01:51:06.076Z,27.4
2019-06-26T01:51:46.562Z,27.43
2019-06-26T01:52:27.052Z,27.42
2019-06-26T01:53:07.535Z,27.42
2019-06-26T01:53:48.024Z,27.31
2019-06-26T01:54:28.494Z,27.24
2019-06-26T01:55:08.981Z,27.33
2019-06-26T01:55:49.486Z,27.25
2019-06-26T01:56:29.973Z,27.28
2019-06-26T01:57:10.467Z,27.33
2019-06-26T01:57:50.976Z,27.34
2019-06-26T01:58:31.435Z,27.33
2019-06-26T01:59:11.936Z,27.3
2019-06-26T01:59:52.436Z,27.3
2019-06-26T02:00:32.911Z,27.28
2019-06-26T02:01:13.392Z,27.3
2019-06-26T02:01:53.884Z,27.28
2019-06-26T02:02:34.373Z,27.23
2019-06-26T02:03:14.848Z,27.31
2019-06-26T02:03:55.340Z,27.18
2019-06-26T02:04:35.886Z,27.25
2019-06-26T02:05:16.346Z,27.21
2019-06-26T02:05:56.844Z,27.18
2019-06-26T02:06:37.334Z,27.18
2019-06-26T02:07:17.836Z,27.11
2019-06-26T02:07:58.329Z,27.2
2019-06-26T02:08:38.845Z,27.13
2019-06-26T02:09:19.302Z,27.15
2019-06-26T02:09:59.792Z,27.11
2019-06-26T02:10:40.275Z,27.12
2019-06-26T02:11:20.778Z,27.06
2019-06-26T02:12:01.254Z,27.16
2019-06-26T02:12:41.741Z,27.13
2019-06-26T02:13:22.241Z,27.11
2019-06-26T02:14:02.738Z,27.16
2019-06-26T02:14:43.220Z,27.11
2019-06-26T02:15:23.706Z,27.08
2019-06-26T02:16:04.207Z,27.03
2019-06-26T02:17:25.191Z,27.03
2019-06-26T02:18:05.679Z,27.01
2019-06-26T02:18:46.175Z,27.01
2019-06-26T02:19:26.676Z,27.01
2019-06-26T02:20:07.168Z,27.01
2019-06-26T02:20:47.664Z,26.97
2019-06-26T02:21:28.157Z,26.98
2019-06-26T02:22:08.643Z,27.01
2019-06-26T02:22:49.695Z,27.05
2019-06-26T02:23:29.642Z,26.97
2019-06-26T02:24:10.132Z,26.97
2019-06-26T02:24:50.616Z,27.02
2019-06-26T02:25:31.110Z,26.98
2019-06-26T02:26:11.599Z,26.98
2019-06-26T02:26:52.084Z,26.91
2019-06-26T02:27:32.545Z,27.01
2019-06-26T02:28:13.049Z,27.02
2019-06-26T02:28:53.521Z,26.97
2019-06-26T02:29:34.014Z,26.93
2019-06-26T02:30:14.504Z,27.01
2019-06-26T02:30:55.000Z,26.98
2019-06-26T02:31:35.514Z,26.94
2019-06-26T02:32:16.002Z,26.94
2019-06-26T02:32:56.475Z,26.93
2019-06-26T02:33:36.983Z,26.93
2019-06-26T02:34:17.472Z,26.93
2019-06-26T02:34:57.995Z,26.88
2019-06-26T02:35:38.448Z,26.88
2019-06-26T02:36:18.936Z,26.9
2019-06-26T02:36:59.403Z,26.9
2019-06-26T02:37:39.891Z,26.78
2019-06-26T02:38:20.363Z,26.79
2019-06-26T02:39:00.852Z,26.83
2019-06-26T02:39:41.327Z,26.81
2019-06-26T02:40:21.817Z,26.83
2019-06-26T02:41:02.303Z,26.83
2019-06-26T02:42:23.268Z,26.71
2019-06-26T02:43:06.918Z,26.78
2019-06-26T02:43:44.253Z,26.76
2019-06-26T02:44:24.730Z,26.83
2019-06-26T02:45:05.225Z,26.84
2019-06-26T02:45:45.718Z,26.76
2019-06-26T02:46:26.222Z,26.72
2019-06-26T02:47:19.101Z,26.73
2019-06-26T02:47:47.215Z,26.72
2019-06-26T02:48:27.711Z,26.73
2019-06-26T02:49:08.198Z,26.72
2019-06-26T02:49:48.704Z,26.64
2019-06-26T02:50:29.198Z,26.71
2019-06-26T02:51:09.687Z,26.65
2019-06-26T02:51:50.173Z,26.68
2019-06-26T02:52:30.663Z,26.71
2019-06-26T02:53:11.162Z,26.69
2019-06-26T02:53:51.652Z,26.71
2019-06-26T02:54:32.140Z,26.73
2019-06-26T02:55:12.631Z,26.71
2019-06-26T02:55:53.120Z,26.73
2019-06-26T02:56:33.613Z,26.68
2019-06-26T02:57:14.102Z,26.76
2019-06-26T02:57:54.573Z,26.66
2019-06-26T02:58:35.066Z,26.68
2019-06-26T02:59:15.565Z,26.71
2019-06-26T02:59:56.038Z,26.66
2019-06-26T03:00:36.530Z,26.68
2019-06-26T03:01:17.000Z,26.71
2019-06-26T03:01:57.492Z,26.61
2019-06-26T03:02:37.990Z,26.66
2019-06-26T03:03:18.494Z,26.6
2019-06-26T03:03:58.970Z,26.61
2019-06-26T03:04:39.462Z,26.6
2019-06-26T03:05:19.955Z,26.57
2019-06-26T03:06:00.449Z,26.59
2019-06-26T03:07:21.484Z,26.61
2019-06-26T03:08:01.930Z,26.56
2019-06-26T03:08:42.356Z,26.5
2019-06-26T03:09:22.844Z,26.5
2019-06-26T03:10:03.339Z,26.49
2019-06-26T03:10:43.802Z,26.46
2019-06-26T03:11:24.260Z,26.53
2019-06-26T03:12:04.737Z,26.5
2019-06-26T03:12:45.217Z,26.51
2019-06-26T03:13:25.658Z,26.47
2019-06-26T03:14:06.119Z,26.49
2019-06-26T03:14:46.612Z,26.51
2019-06-26T03:15:27.107Z,26.53
2019-06-26T03:16:07.581Z,26.44
2019-06-26T03:16:48.084Z,26.51
2019-06-26T03:17:28.598Z,26.49
2019-06-26T03:18:09.079Z,26.44
2019-06-26T03:18:49.568Z,26.47
2019-06-26T03:19:30.054Z,26.49
2019-06-26T03:20:10.551Z,26.42
2019-06-26T03:20:51.035Z,26.47
2019-06-26T03:21:31.528Z,26.46
2019-06-26T03:22:12.024Z,26.36
2019-06-26T03:22:52.503Z,26.35
2019-06-26T03:23:33.002Z,26.36
2019-06-26T03:24:53.994Z,26.29
2019-06-26T03:25:34.511Z,26.36
2019-06-26T03:26:14.997Z,26.35
2019-06-26T03:26:55.492Z,26.36
2019-06-26T03:27:36.000Z,26.36
2019-06-26T03:28:16.452Z,26.36
2019-06-26T03:28:56.946Z,26.36
2019-06-26T03:29:37.437Z,26.38
2019-06-26T03:30:17.942Z,26.35
2019-06-26T03:30:58.457Z,26.36
2019-06-26T03:31:38.918Z,26.35
2019-06-26T03:32:19.419Z,26.35
2019-06-26T03:32:59.887Z,26.32
2019-06-26T03:33:40.369Z,26.34
2019-06-26T03:34:20.856Z,26.38
2019-06-26T03:35:01.344Z,26.34
2019-06-26T03:35:41.825Z,26.38
2019-06-26T03:36:22.301Z,26.32
2019-06-26T03:37:02.803Z,26.29
2019-06-26T03:37:43.294Z,26.31
2019-06-26T03:38:23.792Z,26.31
2019-06-26T03:39:04.298Z,26.34
2019-06-26T03:39:44.773Z,26.29
2019-06-26T03:40:25.271Z,26.23
2019-06-26T03:41:05.767Z,26.24
2019-06-26T03:41:46.260Z,26.21
2019-06-26T03:42:26.757Z,26.21
2019-06-26T03:43:07.250Z,26.21
2019-06-26T03:43:47.737Z,26.19
2019-06-26T03:44:28.222Z,26.29
2019-06-26T03:45:21.376Z,26.19
2019-06-26T03:45:49.226Z,26.21
2019-06-26T03:46:29.686Z,26.23
2019-06-26T03:47:10.183Z,26.28
2019-06-26T03:47:50.662Z,26.17
2019-06-26T03:48:31.163Z,26.27
2019-06-26T03:49:52.143Z,26.29
2019-06-26T03:50:32.616Z,26.27
2019-06-26T03:51:14.149Z,26.21
2019-06-26T03:51:53.579Z,26.24
2019-06-26T03:52:34.069Z,26.17
2019-06-26T03:53:14.572Z,26.2
2019-06-26T03:53:55.049Z,26.2
2019-06-26T03:54:35.540Z,26.19
2019-06-26T03:55:16.026Z,26.21
2019-06-26T03:55:56.485Z,26.24
2019-06-26T03:56:37.008Z,26.17
2019-06-26T03:57:17.463Z,26.29
2019-06-26T03:57:57.945Z,26.19
2019-06-26T03:58:38.431Z,26.2
2019-06-26T03:59:18.939Z,26.2
2019-06-26T03:59:59.408Z,26.2
2019-06-26T04:00:39.929Z,26.2
2019-06-26T04:01:20.390Z,26.24
2019-06-26T04:02:00.887Z,26.21
2019-06-26T04:02:41.383Z,26.24
2019-06-26T04:03:21.890Z,26.28
2019-06-26T04:04:02.403Z,26.34
2019-06-26T04:04:42.893Z,26.32
2019-06-26T04:05:23.388Z,26.27
2019-06-26T04:06:03.853Z,26.34
2019-06-26T04:07:24.839Z,26.39
2019-06-26T04:08:05.323Z,26.35
2019-06-26T04:08:45.798Z,26.49
2019-06-26T04:09:26.269Z,26.46
2019-06-26T04:10:06.763Z,26.42
2019-06-26T04:10:47.268Z,26.46
2019-06-26T04:11:27.756Z,26.53
2019-06-26T04:12:08.214Z,26.57
2019-06-26T04:12:48.697Z,26.57
2019-06-26T04:13:29.164Z,26.59
2019-06-26T04:14:09.638Z,26.61
2019-06-26T04:14:50.114Z,26.66
2019-06-26T04:15:41.205Z,26.68
2019-06-26T04:16:11.061Z,26.79
2019-06-26T04:17:32.059Z,26.86
2019-06-26T04:18:12.545Z,26.87
2019-06-26T04:20:25.227Z,27.09
2019-06-26T04:21:05.726Z,27.08
2019-06-26T04:21:46.209Z,27.13
2019-06-26T04:22:26.717Z,27.15
2019-06-26T04:23:44.873Z,27.24
2019-06-26T04:24:25.402Z,27.23
2019-06-26T04:25:05.993Z,27.38
2019-06-26T04:25:46.488Z,27.45
2019-06-26T04:26:26.969Z,27.39
2019-06-26T04:27:07.446Z,27.46
2019-06-26T04:27:47.940Z,27.48
2019-06-26T05:07:00.330Z,29.97
2019-06-26T05:07:40.808Z,30.03
2019-06-26T05:08:21.277Z,30.15
2019-06-26T05:09:01.820Z,30.11
2019-06-26T05:09:42.333Z,30.22
2019-06-26T05:10:22.825Z,30.34
2019-06-26T05:11:03.371Z,30.29
2019-06-26T05:11:43.813Z,30.4
2019-06-26T05:12:24.343Z,30.45
2019-06-26T05:13:04.819Z,30.53
2019-06-26T05:13:45.358Z,30.61
2019-06-26T05:14:26.221Z,30.72
2019-06-26T05:15:06.769Z,30.83
2019-06-26T05:15:47.294Z,30.94
2019-06-26T05:16:27.760Z,31.09
2019-06-26T05:17:08.307Z,31.12
2019-06-26T05:17:48.807Z,31.19
2019-06-26T05:19:09.772Z,31.35
2019-06-26T05:19:50.246Z,31.46
2019-06-26T05:20:30.704Z,31.59
2019-06-26T05:21:11.190Z,31.57
2019-06-26T05:21:51.684Z,31.75
2019-06-26T05:22:32.650Z,31.78
2019-06-26T05:23:13.480Z,31.76
2019-06-26T05:23:53.955Z,31.85
2019-06-26T05:24:34.446Z,31.91
2019-06-26T05:25:14.956Z,32.03
2019-06-26T05:25:55.472Z,32.03
2019-06-26T05:26:36.021Z,32.16
2019-06-26T05:27:16.498Z,32.25
2019-06-26T05:27:56.983Z,32.21
2019-06-26T05:28:37.451Z,32.27
2019-06-26T05:29:17.963Z,32.31
2019-06-26T05:32:21.626Z,32.1
2019-06-26T05:33:02.107Z,32.21
2019-06-26T05:33:42.566Z,32.14
2019-06-26T05:34:23.093Z,32.19
2019-06-26T05:35:03.583Z,32.34
2019-06-26T05:35:44.039Z,32.25
2019-06-26T05:39:31.005Z,32.53
2019-06-26T05:40:11.458Z,32.51
2019-06-26T05:40:51.961Z,32.62
2019-06-26T05:41:32.507Z,32.63
2019-06-26T05:42:12.924Z,32.72
2019-06-26T05:42:53.471Z,32.78
2019-06-26T05:43:33.934Z,32.72
2019-06-26T05:44:14.451Z,32.83
2019-06-26T05:44:55.143Z,32.87
2019-06-26T05:45:35.471Z,32.84
2019-06-26T05:46:29.919Z,32.93
2019-06-26T05:46:56.384Z,33.11
2019-06-26T05:47:36.906Z,33.07
2019-06-26T05:48:17.356Z,33
2019-06-26T05:48:57.815Z,32.99
2019-06-26T05:49:38.340Z,33.05
2019-06-26T05:50:18.903Z,33.06
2019-06-26T05:50:59.390Z,33.05
2019-06-26T05:51:39.927Z,33.12
2019-06-26T05:52:20.378Z,33.14
2019-06-26T05:53:00.869Z,33.24
2019-06-26T05:53:41.352Z,33.37
2019-06-26T05:54:21.907Z,33.15
2019-06-26T05:55:02.557Z,33.28
2019-06-26T05:55:42.889Z,33.43
2019-06-26T05:56:23.363Z,33.52
2019-06-26T05:57:03.887Z,33.6
2019-06-26T05:57:44.360Z,33.65
2019-06-26T05:58:24.875Z,33.72
2019-06-26T05:59:06.782Z,33.68
2019-06-26T05:59:47.268Z,33.74
2019-06-26T06:00:27.758Z,33.77
2019-06-26T06:01:08.254Z,33.84
2019-06-26T06:01:48.762Z,33.84
2019-06-26T06:02:29.407Z,33.86
2019-06-26T06:03:10.234Z,33.96
2019-06-26T06:03:50.717Z,33.99
2019-06-26T06:04:31.171Z,34.06
2019-06-26T06:05:11.733Z,34.06
2019-06-26T06:05:52.227Z,34.05
2019-06-26T06:06:41.360Z,34.11
2019-06-26T06:07:13.248Z,34.14
2019-06-26T06:07:54.288Z,34.23
2019-06-26T06:08:34.781Z,34.21
2019-06-26T06:09:15.558Z,34.16
2019-06-26T06:09:56.251Z,34.19
2019-06-26T06:10:36.909Z,34.31
2019-06-26T06:11:17.682Z,34.33
2019-06-26T06:11:58.479Z,34.38
2019-06-26T06:12:38.959Z,34.49
2019-06-26T06:13:19.561Z,34.43
2019-06-26T06:14:00.062Z,34.55
2019-06-26T06:15:21.725Z,34.55
2019-06-26T06:16:06.203Z,34.56
2019-06-26T06:16:47.167Z,34.53
2019-06-26T06:17:23.594Z,34.58
2019-06-26T06:18:04.075Z,34.46
2019-06-26T06:18:44.533Z,34.43
2019-06-26T06:19:25.022Z,34.48
2019-06-26T06:20:05.481Z,34.61
2019-06-26T06:20:46.102Z,34.5
2019-06-26T06:21:26.574Z,34.46
2019-06-26T06:22:07.050Z,34.56
2019-06-26T06:22:48.765Z,34.6
2019-06-26T06:23:28.334Z,34.69
2019-06-26T06:24:08.809Z,34.67
2019-06-26T06:24:49.312Z,34.65
2019-06-26T06:25:29.793Z,34.69
2019-06-26T06:26:10.300Z,34.75
2019-06-26T06:28:07.912Z,34.81
2019-06-26T06:28:48.515Z,34.93
2019-06-26T06:29:30.749Z,34.8
2019-06-26T06:30:09.436Z,34.83
2019-06-26T06:30:49.961Z,34.76
2019-06-26T06:31:31.076Z,34.86
2019-06-26T06:32:12.171Z,34.87
2019-06-26T06:32:53.181Z,34.83
2019-06-26T06:33:33.680Z,34.76
2019-06-26T06:34:15.182Z,34.69
2019-06-26T06:34:55.825Z,34.76
2019-06-26T06:35:36.085Z,34.72
2019-06-26T06:36:19.343Z,34.72
2019-06-26T06:37:01.837Z,34.71
2019-06-26T06:37:42.686Z,34.72
2019-06-26T06:38:23.225Z,34.78
2019-06-26T06:39:03.875Z,34.64
2019-06-26T06:39:46.381Z,34.8
2019-06-26T06:40:28.744Z,34.9
2019-06-26T06:41:08.710Z,35.03
2019-06-26T06:41:50.168Z,34.99
2019-06-26T06:42:30.636Z,35.05
2019-06-26T06:43:10.776Z,35.17
2019-06-26T06:43:51.446Z,35.09
2019-06-26T06:44:32.400Z,35.21
2019-06-26T06:45:13.181Z,35.2
2019-06-26T06:45:53.957Z,35.22
2019-06-26T06:46:34.682Z,35.24
2019-06-26T06:47:16.309Z,35.22
2019-06-26T06:47:56.858Z,35.15
2019-06-26T06:48:38.783Z,35.07
2019-06-26T06:49:20.141Z,35.07
2019-06-26T06:50:00.322Z,35
2019-06-26T06:50:41.199Z,34.93
2019-06-26T06:51:22.720Z,35.02
2019-06-26T06:52:03.261Z,34.93
2019-06-26T06:52:43.931Z,34.84
2019-06-26T06:53:25.521Z,34.86
2019-06-26T06:54:06.108Z,34.76
2019-06-26T06:54:46.858Z,34.86
2019-06-26T07:00:24.825Z,34.73
2019-06-26T07:01:05.531Z,34.83
2019-06-26T07:01:45.860Z,34.78
2019-06-26T07:02:26.556Z,34.72
2019-06-26T07:03:07.068Z,34.58
2019-06-26T07:03:47.531Z,34.64
2019-06-26T07:04:28.842Z,34.72
2019-06-26T07:05:09.202Z,34.78
2019-06-26T07:05:49.712Z,34.75
2019-06-26T07:06:30.174Z,34.95
2019-06-26T07:07:10.644Z,34.95
2019-06-26T07:07:51.167Z,34.88
2019-06-26T07:08:33.310Z,34.78
2019-06-26T07:09:13.791Z,34.72
2019-06-26T07:09:54.291Z,34.76
2019-06-26T07:10:34.759Z,34.9
2019-06-26T07:11:15.260Z,34.93
2019-06-26T07:11:55.868Z,34.9
2019-06-26T07:12:36.413Z,34.78
2019-06-26T07:13:18.452Z,34.91
2019-06-26T07:13:58.941Z,34.99
2019-06-26T07:14:39.442Z,35.02
2019-06-26T07:15:19.910Z,34.94
2019-06-26T07:16:01.147Z,35
2019-06-26T07:16:41.672Z,35.13
2019-06-26T07:17:22.155Z,35.2
2019-06-26T07:18:02.674Z,35.31
2019-06-26T07:18:43.278Z,35.27
2019-06-26T07:20:04.110Z,35.32
2019-06-26T07:20:44.876Z,35.37
2019-06-26T07:21:25.083Z,35.5
2019-06-26T07:22:07.306Z,35.61
2019-06-26T07:22:46.159Z,35.61
2019-06-26T07:23:27.463Z,35.62
2019-06-26T07:24:07.948Z,35.65
2019-06-26T07:24:48.454Z,35.65
2019-06-26T07:25:28.950Z,35.77
2019-06-26T07:26:12.402Z,35.83
2019-06-26T07:26:49.926Z,35.93
2019-06-26T07:27:30.400Z,35.83
2019-06-26T07:28:11.069Z,35.92
2019-06-26T07:28:51.422Z,35.96
2019-06-26T07:29:35.861Z,35.87
2019-06-26T07:30:16.345Z,36.13
2019-06-26T07:30:56.819Z,35.98
2019-06-26T07:31:38.494Z,36.05
2019-06-26T07:32:18.703Z,36.19
2019-06-26T07:33:00.376Z,36.21
2019-06-26T07:33:40.842Z,36.19
2019-06-26T07:34:21.963Z,36.33
2019-06-26T07:35:02.665Z,36.38
2019-06-26T07:35:42.972Z,36.48
2019-06-26T07:36:23.429Z,36.48
2019-06-26T07:37:03.898Z,36.4
2019-06-26T07:37:44.616Z,36.49
2019-06-26T07:38:25.154Z,36.56
2019-06-26T07:39:05.784Z,36.53
2019-06-26T07:39:46.256Z,36.52
2019-06-26T07:40:26.701Z,36.56
2019-06-26T07:41:07.303Z,36.53
2019-06-26T07:41:47.834Z,36.49
2019-06-26T07:42:28.411Z,36.49
2019-06-26T07:43:09.083Z,36.46
2019-06-26T07:43:49.880Z,36.41
2019-06-26T07:44:30.390Z,36.5
2019-06-26T07:45:10.869Z,36.48
2019-06-26T07:45:51.376Z,36.44
2019-06-26T07:46:31.880Z,36.53
2019-06-26T07:47:22.756Z,36.52
2019-06-26T07:47:54.849Z,36.52
2019-06-26T07:48:35.327Z,36.56
2019-06-26T07:49:15.879Z,36.65
2019-06-26T07:49:57.023Z,36.67
2019-06-26T07:50:37.660Z,36.65
2019-06-26T07:51:18.138Z,36.79
2019-06-26T07:51:58.660Z,36.77
2019-06-26T07:52:39.077Z,36.74
2019-06-26T07:53:19.561Z,36.74
2019-06-26T07:54:00.143Z,36.71
2019-06-26T07:54:40.588Z,36.71
2019-06-26T07:55:21.198Z,36.78
2019-06-26T07:56:01.743Z,36.82
2019-06-26T07:56:42.285Z,36.93
2019-06-26T07:57:22.841Z,36.96
2019-06-26T07:58:03.320Z,36.91
2019-06-26T07:58:43.823Z,36.9
2019-06-26T07:59:24.525Z,36.91
2019-06-26T08:00:04.970Z,36.9
2019-06-26T08:00:46.736Z,37.01
2019-06-26T08:01:27.922Z,36.93
2019-06-26T08:02:08.572Z,37.02
2019-06-26T08:02:49.263Z,37.06
2019-06-26T08:03:30.637Z,37.21
2019-06-26T08:04:11.138Z,37.27
2019-06-26T08:04:51.697Z,37.33
2019-06-26T08:05:32.470Z,37.35
2019-06-26T08:06:15.097Z,37.38
2019-06-26T08:06:55.880Z,37.33
2019-06-26T08:07:36.368Z,37.31
2019-06-26T08:08:18.101Z,37.39
2019-06-26T08:08:58.674Z,37.38
2019-06-26T08:09:39.219Z,37.46
2019-06-26T08:10:19.779Z,37.58
2019-06-26T08:11:40.840Z,37.58
2019-06-26T08:12:21.224Z,37.65
2019-06-26T08:13:02.356Z,37.6
2019-06-26T08:15:53.327Z,37.9
2019-06-26T08:16:34.514Z,37.93
2019-06-26T08:17:14.655Z,38.02
2019-06-26T08:18:00.269Z,38.09
2019-06-26T08:18:36.342Z,38.06
2019-06-26T08:19:16.796Z,38.1
2019-06-26T08:19:57.322Z,38.1
2019-06-26T08:20:51.836Z,38.18
2019-06-26T08:21:18.355Z,38.31
2019-06-26T08:21:58.825Z,38.25
2019-06-26T08:22:39.302Z,38.28
2019-06-26T08:24:00.296Z,38.4
2019-06-26T08:24:41.645Z,38.45
2019-06-26T08:25:22.132Z,38.47
2019-06-26T08:26:43.079Z,38.37
2019-06-26T08:27:23.583Z,38.43
2019-06-26T08:28:04.030Z,38.44
2019-06-26T08:28:45.836Z,38.41
2019-06-26T08:29:29.570Z,38.47
2019-06-26T08:30:10.405Z,38.49
2019-06-26T08:30:51.426Z,38.52
2019-06-26T08:31:32.114Z,38.53
2019-06-26T08:32:13.824Z,38.44
2019-06-26T08:32:55.383Z,38.45
2019-06-26T08:33:37.506Z,38.34
2019-06-26T08:34:18.687Z,38.33
2019-06-26T08:34:59.713Z,38.44
2019-06-26T08:35:40.210Z,38.56
2019-06-26T08:36:20.143Z,38.62
2019-06-26T08:37:00.633Z,38.4
2019-06-26T08:37:41.099Z,38.41
2019-06-26T08:38:21.835Z,38.31
2019-06-26T08:39:03.139Z,38.33
2019-06-26T08:39:44.695Z,38.18
2019-06-26T08:40:25.308Z,38.06
2019-06-26T08:41:05.932Z,38.22
2019-06-26T08:41:47.910Z,38.34
2019-06-26T08:42:28.542Z,38.36
2019-06-26T08:43:11.653Z,38.33
2019-06-26T08:43:52.202Z,38.36
2019-06-26T08:44:35.424Z,38.37
2019-06-26T08:45:15.861Z,38.52
2019-06-26T08:45:56.395Z,38.62
2019-06-26T08:46:36.860Z,38.67
2019-06-26T08:47:19.344Z,38.68
2019-06-26T08:48:13.366Z,38.71
2019-06-26T08:48:40.909Z,38.82
2019-06-26T08:49:25.844Z,38.78
2019-06-26T08:50:03.293Z,38.87
2019-06-26T08:50:45.344Z,39.05
2019-06-26T08:55:35.580Z,39.02
2019-06-26T08:56:16.951Z,39.07
2019-06-26T08:56:57.724Z,39.05
2019-06-26T08:57:38.097Z,39.14
2019-06-26T08:58:18.754Z,39.12
2019-06-26T08:58:59.323Z,39.2
2019-06-26T08:59:39.809Z,39.05
2019-06-26T09:00:20.347Z,39.17
2019-06-26T09:01:01.444Z,39.2
2019-06-26T09:01:43.126Z,39.27
2019-06-26T09:02:23.801Z,39.31
2019-06-26T09:03:04.297Z,39.41
2019-06-26T09:03:44.781Z,39.27
2019-06-26T09:04:25.530Z,39.36
2019-06-26T09:05:06.090Z,39.46
2019-06-26T09:05:48.604Z,39.61
2019-06-26T09:06:28.070Z,39.53
2019-06-26T09:07:08.571Z,39.56
2019-06-26T09:07:49.093Z,39.48
2019-06-26T09:08:29.701Z,39.44
2019-06-26T09:09:10.667Z,39.29
2019-06-26T09:09:51.159Z,39.34
2019-06-26T09:10:31.660Z,39.34
2019-06-26T09:11:12.214Z,39.44
2019-06-26T09:11:52.743Z,39.44
2019-06-26T09:12:33.282Z,39.43
2019-06-26T09:13:14.798Z,39.43
2019-06-26T09:13:55.322Z,39.39
2019-06-26T09:14:37.828Z,39.59
2019-06-26T09:15:20.560Z,39.66
2019-06-26T09:16:01.363Z,39.68
2019-06-26T09:16:43.291Z,39.78
2019-06-26T09:17:24.691Z,39.97
2019-06-26T09:18:05.234Z,39.8
2019-06-26T09:18:51.981Z,39.94
2019-06-26T09:19:35.013Z,39.96
2019-06-26T09:20:18.243Z,40.07
2019-06-26T09:20:58.881Z,40.11
2019-06-26T09:21:39.504Z,40.18
2019-06-26T09:22:19.918Z,40.28
2019-06-26T09:23:00.551Z,40.46
2019-06-26T09:23:41.263Z,40.28
2019-06-26T09:24:23.565Z,40.28
2019-06-26T09:25:20.086Z,40.25
2019-06-26T09:25:44.795Z,40.24
2019-06-26T09:26:27.535Z,40.28
2019-06-26T09:27:09.536Z,40.34
2019-06-26T09:27:54.906Z,40.33
2019-06-26T09:28:35.503Z,40.44
2019-06-26T09:29:15.976Z,40.54
2019-06-26T09:29:56.581Z,40.48
2019-06-26T09:30:38.811Z,40.45
2019-06-26T09:31:19.674Z,40.38
2019-06-26T09:32:00.130Z,40.25
2019-06-26T09:32:40.671Z,40.36
2019-06-26T09:33:21.138Z,40.38
2019-06-26T09:35:21.528Z,40.42
2019-06-26T09:36:06.928Z,40.45
2019-06-26T09:36:45.479Z,40.39
2019-06-26T09:37:26.166Z,40.34
2019-06-26T09:38:06.647Z,40.45
2019-06-26T09:38:47.150Z,40.53
2019-06-26T09:39:29.265Z,40.66
2019-06-26T09:40:10.121Z,40.58
2019-06-26T09:40:50.406Z,40.57
2019-06-26T09:41:32.953Z,40.61
2019-06-26T09:42:13.687Z,40.42
2019-06-26T09:42:55.977Z,40.38
2019-06-26T09:43:36.523Z,40.38
2019-06-26T09:44:17.139Z,40.33
2019-06-26T09:44:57.729Z,40.31
2019-06-26T09:45:38.564Z,40.31
2019-06-26T09:46:22.144Z,40.31
2019-06-26T09:47:02.275Z,40.53
2019-06-26T09:47:42.960Z,40.61
2019-06-26T09:48:23.799Z,40.68
2019-06-26T09:49:04.355Z,40.72
2019-06-26T09:49:47.670Z,40.57
2019-06-26T09:50:28.575Z,40.63
2019-06-26T09:51:09.119Z,40.71
2019-06-26T09:51:49.703Z,40.67
2019-06-26T09:52:30.640Z,40.58
2019-06-26T09:53:14.807Z,40.72
2019-06-26T09:53:55.212Z,40.72
2019-06-26T09:54:35.754Z,40.73
2019-06-26T09:55:18.218Z,40.73
2019-06-26T09:56:01.902Z,40.82